createdAt,value
2022-10-11T00:02:52.974Z,74.07
2022-10-11T00:06:49.527Z,73.86
2022-10-11T00:10:10.861Z,73.75
2022-10-11T00:13:47.609Z,73.51
2022-10-11T00:17:44.494Z,73.43
2022-10-11T00:21:24.140Z,73.66
2022-10-11T00:24:44.777Z,73.95
2022-10-11T00:28:22.386Z,74.17
2022-10-11T00:31:59.984Z,74.12
2022-10-11T00:35:41.770Z,74.18
2022-10-11T00:39:34.119Z,74.28
2022-10-11T00:42:54.554Z,74.47
2022-10-11T00:46:32.400Z,74.11
2022-10-11T00:50:11.552Z,74.07
2022-10-11T00:54:10.990Z,74.43
2022-10-11T00:57:35.214Z,74.66
2022-10-11T01:01:09.533Z,75.30
2022-10-11T01:04:47.627Z,75.01
2022-10-11T01:08:25.007Z,74.81
2022-10-11T01:12:05.523Z,74.53
2022-10-11T01:16:05.087Z,74.48
2022-10-11T01:19:45.908Z,74.24
2022-10-11T01:23:25.629Z,74.45
2022-10-11T01:27:29.060Z,74.68
2022-10-11T01:30:51.692Z,74.93
2022-10-11T01:35:13.780Z,74.87
2022-10-11T01:38:50.709Z,74.66
2022-10-11T01:42:13.572Z,74.39
2022-10-11T01:45:56.415Z,74.09
2022-10-11T01:49:27.602Z,74.03
2022-10-11T01:53:33.557Z,74.05
2022-10-11T01:57:01.016Z,74.13
2022-10-11T02:01:12.002Z,74.36
2022-10-11T02:05:04.674Z,74.60
2022-10-11T02:08:55.229Z,74.52
2022-10-11T02:12:25.311Z,74.26
2022-10-11T02:16:19.278Z,74.14
2022-10-11T02:19:49.655Z,74.08
2022-10-11T02:23:25.519Z,73.94
2022-10-11T02:27:17.398Z,74.04
2022-10-11T02:30:40.696Z,74.14
2022-10-11T02:34:21.197Z,74.29
2022-10-11T02:38:02.686Z,74.48
2022-10-11T02:41:52.629Z,74.45
2022-10-11T02:45:36.818Z,74.26
2022-10-11T02:48:59.731Z,73.96
2022-10-11T02:52:35.762Z,73.76
2022-10-11T02:56:13.600Z,73.73
2022-10-11T02:59:51.232Z,73.58
2022-10-11T03:03:29.257Z,73.50
2022-10-11T03:07:25.488Z,73.84
2022-10-11T03:10:46.325Z,74.28
2022-10-11T03:14:42.889Z,74.47
2022-10-11T03:18:04.120Z,74.38
2022-10-11T03:21:41.613Z,74.13
2022-10-11T03:25:19.222Z,74.14
2022-10-11T03:28:57.032Z,74.03
2022-10-11T03:32:35.119Z,74.01
2022-10-11T03:36:12.175Z,73.96
2022-10-11T03:39:50.109Z,73.87
2022-10-11T03:43:27.766Z,74.04
2022-10-11T03:47:06.251Z,74.40
2022-10-11T03:50:42.839Z,74.68
2022-10-11T03:54:20.626Z,74.90
2022-10-11T03:57:58.329Z,74.79
2022-10-11T04:01:54.751Z,74.59
2022-10-11T04:05:15.888Z,74.52
2022-10-11T04:08:53.338Z,74.41
2022-10-11T04:12:49.810Z,74.36
2022-10-11T04:16:10.237Z,74.34
2022-10-11T04:19:48.425Z,74.59
2022-10-11T04:23:25.693Z,74.98
2022-10-11T04:27:03.243Z,75.36
2022-10-11T04:30:41.172Z,75.58
2022-10-11T04:34:18.998Z,75.70
2022-10-11T04:37:56.708Z,75.72
2022-10-11T04:41:34.621Z,75.59
2022-10-11T04:45:30.608Z,75.51
2022-10-11T04:49:10.258Z,75.70
2022-10-11T04:52:49.946Z,76.11
2022-10-11T04:56:15.086Z,76.71
2022-10-11T04:59:50.311Z,76.92
2022-10-11T05:03:44.649Z,77.11
2022-10-11T05:07:06.672Z,77.06
2022-10-11T05:10:42.933Z,77.01
2022-10-11T05:14:20.534Z,76.76
2022-10-11T05:17:58.247Z,76.95
2022-10-11T05:21:35.847Z,77.47
2022-10-11T05:25:13.519Z,77.78
2022-10-11T05:29:10.070Z,78.20
2022-10-11T05:32:30.639Z,78.07
2022-10-11T05:36:26.815Z,77.91
2022-10-11T05:39:47.351Z,77.93
2022-10-11T05:43:24.981Z,78.17
2022-10-11T05:47:03.321Z,78.42
2022-10-11T05:50:41.180Z,78.62
2022-10-11T05:54:18.125Z,78.90
2022-10-11T05:57:56.954Z,78.82
2022-10-11T06:01:33.501Z,78.92
2022-10-11T06:05:11.011Z,78.77
2022-10-11T06:09:07.779Z,78.83
2022-10-11T06:12:32.384Z,78.95
2022-10-11T06:16:07.721Z,79.29
2022-10-11T06:19:43.890Z,79.52
2022-10-11T06:23:40.500Z,79.83
2022-10-11T06:27:01.030Z,79.77
2022-10-11T06:30:57.705Z,79.78
2022-10-11T06:34:18.556Z,79.71
2022-10-11T06:37:56.276Z,79.82
2022-10-11T06:41:33.905Z,80.03
2022-10-11T06:45:11.642Z,80.14
2022-10-11T06:49:08.163Z,80.61
2022-10-11T06:52:28.932Z,81.62
2022-10-11T06:56:27.975Z,81.72
2022-10-11T06:59:48.883Z,81.67
2022-10-11T07:03:26.344Z,81.69
2022-10-11T07:07:04.212Z,82.06
2022-10-11T07:10:42.138Z,82.68
2022-10-11T07:14:38.406Z,82.95
2022-10-11T07:17:58.968Z,83.06
2022-10-11T07:21:36.804Z,83.17
2022-10-11T07:25:33.137Z,83.20
2022-10-11T07:29:12.484Z,83.04
2022-10-11T07:32:33.275Z,82.87
2022-10-11T07:36:29.670Z,82.40
2022-10-11T07:39:50.785Z,82.47
2022-10-11T07:43:28.192Z,82.33
2022-10-11T07:47:10.964Z,81.87
2022-10-11T07:50:43.724Z,81.54
2022-10-11T07:54:40.306Z,81.03
2022-10-11T07:58:01.208Z,81.01
2022-10-11T08:01:38.950Z,80.53
2022-10-11T08:05:16.618Z,80.51
2022-10-11T08:09:13.081Z,80.52
2022-10-11T08:12:34.616Z,79.95
2022-10-11T08:16:12.803Z,79.99
2022-10-11T08:19:49.422Z,80.24
2022-10-11T08:23:45.901Z,80.21
2022-10-11T08:27:06.566Z,80.31
2022-10-11T08:31:03.846Z,80.39
2022-10-11T08:34:24.516Z,80.44
2022-10-11T08:38:24.303Z,80.32
2022-10-11T08:41:53.130Z,80.23
2022-10-11T08:45:55.484Z,79.94
2022-10-11T08:49:20.021Z,80.01
2022-10-11T08:52:59.634Z,80.27
2022-10-11T08:56:51.004Z,80.70
2022-10-11T09:00:17.226Z,80.64
2022-10-11T09:04:13.983Z,80.44
2022-10-11T09:08:27.888Z,80.41
2022-10-11T09:12:16.740Z,80.48
2022-10-11T09:16:27.818Z,80.50
2022-10-11T09:19:54.549Z,80.45
2022-10-11T09:23:47.972Z,80.10
2022-10-11T09:28:01.650Z,79.97
2022-10-11T09:31:51.880Z,80.01
2022-10-11T09:35:20.751Z,80.02
2022-10-11T09:39:23.930Z,80.08
2022-10-11T09:42:48.323Z,79.89
2022-10-11T09:46:32.358Z,79.62
2022-10-11T09:50:22.316Z,79.46
2022-10-11T09:53:53.036Z,79.44
2022-10-11T09:57:27.938Z,79.58
2022-10-11T10:01:08.675Z,79.73
2022-10-11T10:04:53.971Z,79.39
2022-10-11T10:08:15.290Z,79.33
2022-10-11T10:11:55.374Z,79.26
2022-10-11T10:15:38.389Z,78.49
2022-10-11T10:19:21.544Z,78.60
2022-10-11T10:22:47.792Z,78.68
2022-10-11T10:26:29.059Z,77.96
2022-10-11T10:33:57.363Z,77.35
2022-10-11T10:37:58.851Z,77.42
2022-10-11T10:41:19.848Z,77.56
2022-10-11T10:45:21.177Z,77.52
2022-10-11T10:53:20.913Z,77.04
2022-10-11T10:56:50.315Z,77.13
2022-10-11T11:00:22.722Z,76.69
2022-10-11T11:04:10.786Z,76.87
2022-10-11T11:08:11.549Z,77.00
2022-10-11T11:12:06.301Z,76.30
2022-10-11T11:15:33.111Z,74.55
2022-10-11T11:19:35.475Z,74.40
2022-10-11T11:23:27.302Z,71.96
2022-10-11T11:27:41.059Z,71.66
2022-10-11T11:31:07.799Z,70.85
2022-10-11T11:35:02.257Z,70.72
2022-10-11T11:38:34.280Z,68.64
2022-10-11T11:42:31.904Z,68.80
2022-10-11T11:45:59.911Z,68.00
2022-10-11T11:49:46.177Z,68.12
2022-10-11T11:53:15.393Z,66.97
2022-10-11T11:57:49.044Z,66.22
2022-10-11T12:01:23.482Z,65.27
2022-10-11T12:05:08.642Z,62.63
2022-10-11T12:08:33.631Z,61.57
2022-10-11T12:12:35.620Z,59.59
2022-10-11T12:16:13.733Z,59.46
2022-10-11T12:19:37.516Z,57.22
2022-10-11T12:23:31.269Z,56.06
2022-10-11T12:26:58.338Z,55.00
2022-10-11T12:30:42.865Z,55.32
2022-10-11T12:34:08.292Z,55.41
2022-10-11T12:37:51.660Z,54.66
2022-10-11T12:41:53.106Z,54.57
2022-10-11T12:45:13.870Z,53.80
2022-10-11T12:48:57.818Z,52.99
2022-10-11T12:52:55.147Z,51.91
2022-10-11T12:57:06.350Z,51.36
2022-10-11T13:00:59.917Z,51.92
2022-10-11T13:04:40.244Z,49.02
2022-10-11T13:08:05.909Z,50.75
2022-10-11T13:12:06.183Z,47.23
2022-10-11T13:15:28.674Z,43.28
2022-10-11T13:19:06.348Z,41.63
2022-10-11T13:22:43.296Z,38.61
2022-10-11T13:26:21.430Z,35.80
2022-10-11T13:30:03.750Z,36.61
2022-10-11T13:33:40.603Z,34.23
2022-10-11T13:37:18.763Z,35.27
2022-10-11T13:40:51.385Z,34.15
2022-10-11T13:44:47.445Z,33.22
2022-10-11T13:48:15.515Z,33.57
2022-10-11T13:51:58.530Z,32.87
2022-10-11T13:55:33.419Z,31.90
2022-10-11T13:59:01.765Z,31.63
2022-10-11T14:03:12.991Z,31.52
2022-10-11T14:06:48.205Z,32.08
2022-10-11T14:10:32.316Z,31.00
2022-10-11T14:13:53.076Z,30.85
2022-10-11T14:17:50.815Z,30.95
2022-10-11T14:21:30.284Z,29.71
2022-10-11T14:24:51.694Z,30.46
2022-10-11T14:28:29.384Z,30.78
2022-10-11T14:32:18.837Z,31.18
2022-10-11T14:35:44.745Z,31.85
2022-10-11T14:39:25.493Z,32.03
2022-10-11T14:42:59.998Z,30.81
2022-10-11T14:46:39.388Z,30.66
2022-10-11T14:50:47.354Z,31.65
2022-10-11T14:54:29.742Z,32.04
2022-10-11T14:57:50.673Z,32.82
2022-10-11T15:01:51.157Z,33.49
2022-10-11T15:05:33.868Z,34.23
2022-10-11T15:08:55.562Z,35.63
2022-10-11T15:12:33.219Z,36.58
2022-10-11T15:20:04.945Z,38.53
2022-10-11T15:24:01.246Z,39.10
2022-10-11T15:27:41.901Z,40.29
2022-10-11T15:31:02.719Z,41.01
2022-10-11T15:34:40.286Z,41.79
2022-10-11T15:38:24.188Z,42.27
2022-10-11T15:41:58.310Z,42.81
2022-10-11T15:45:53.609Z,43.39
2022-10-11T15:49:32.925Z,44.11
2022-10-11T15:52:53.573Z,44.71
2022-10-11T15:56:50.015Z,45.37
2022-10-11T16:00:11.380Z,45.91
2022-10-11T16:04:07.565Z,46.53
2022-10-11T16:07:28.328Z,47.09
2022-10-11T16:11:07.290Z,47.85
2022-10-11T16:14:47.050Z,48.41
2022-10-11T16:18:40.353Z,49.08
2022-10-11T16:22:01.138Z,49.73
2022-10-11T16:25:59.691Z,50.28
2022-10-11T16:29:39.299Z,50.94
2022-10-11T16:32:59.789Z,51.64
2022-10-11T16:36:56.255Z,51.98
2022-10-11T16:40:19.820Z,52.31
2022-10-11T16:43:55.959Z,52.65
2022-10-11T16:47:51.572Z,53.09
2022-10-11T16:51:31.403Z,53.78
2022-10-11T16:54:52.910Z,53.90
2022-10-11T16:58:29.454Z,54.57
2022-10-11T17:02:30.020Z,54.97
2022-10-11T17:05:57.804Z,55.30
2022-10-11T17:09:32.200Z,55.43
2022-10-11T17:13:08.492Z,55.65
2022-10-11T17:16:46.070Z,56.06
2022-10-11T17:20:23.750Z,57.12
2022-10-11T17:24:03.693Z,57.00
2022-10-11T17:27:39.154Z,57.07
2022-10-11T17:31:17.204Z,57.79
2022-10-11T17:34:54.940Z,57.61
2022-10-11T17:38:51.779Z,58.10
2022-10-11T17:42:12.391Z,58.29
2022-10-11T17:46:02.180Z,58.48
2022-10-11T17:49:27.764Z,58.69
2022-10-11T17:53:08.319Z,59.58
2022-10-11T17:57:02.290Z,60.88
2022-10-11T18:00:22.792Z,61.78
2022-10-11T18:04:03.274Z,62.12
2022-10-11T18:07:38.113Z,62.13
2022-10-11T18:11:18.568Z,62.30
2022-10-11T18:14:53.628Z,62.06
2022-10-11T18:18:31.241Z,62.02
2022-10-11T18:22:11.329Z,61.81
2022-10-11T18:26:14.466Z,61.90
2022-10-11T18:29:53.773Z,61.94
2022-10-11T18:33:15.794Z,62.08
2022-10-11T18:37:13.083Z,62.39
2022-10-11T18:40:42.257Z,63.15
2022-10-11T18:44:14.492Z,63.88
2022-10-11T18:48:08.911Z,64.36
2022-10-11T18:51:38.519Z,64.33
2022-10-11T18:55:28.606Z,64.48
2022-10-11T18:59:11.837Z,64.27
2022-10-11T19:02:51.415Z,64.56
2022-10-11T19:06:34.990Z,64.75
2022-10-11T19:09:56.004Z,64.86
2022-10-11T19:13:37.653Z,65.11
2022-10-11T19:17:12.529Z,65.63
2022-10-11T19:20:49.119Z,66.18
2022-10-11T19:24:29.582Z,66.91
2022-10-11T19:28:23.675Z,67.22
2022-10-11T19:31:50.996Z,67.42
2022-10-11T19:35:46.321Z,66.95
2022-10-11T19:39:27.842Z,66.71
2022-10-11T19:42:48.674Z,66.33
2022-10-11T19:46:49.922Z,66.26
2022-10-11T19:50:27.773Z,66.23
2022-10-11T19:54:11.125Z,66.37
2022-10-11T19:57:35.363Z,66.04
2022-10-11T20:01:13.503Z,66.21
2022-10-11T20:04:53.186Z,66.70
2022-10-11T20:08:25.796Z,67.21
2022-10-11T20:12:03.530Z,67.77
2022-10-11T20:15:41.097Z,67.80
2022-10-11T20:19:19.575Z,67.59
2022-10-11T20:22:56.580Z,67.32
2022-10-11T20:26:35.162Z,67.38
2022-10-11T20:30:30.632Z,67.30
2022-10-11T20:34:10.861Z,67.24
2022-10-11T20:37:32.605Z,67.12
2022-10-11T20:41:36.342Z,67.59
2022-10-11T20:44:57.100Z,68.43
2022-10-11T20:49:01.325Z,68.82
2022-10-11T20:52:41.501Z,69.12
2022-10-11T20:56:02.691Z,69.10
2022-10-11T20:59:39.886Z,68.62
2022-10-11T21:03:18.039Z,68.48
2022-10-11T21:07:14.119Z,68.35
2022-10-11T21:10:34.835Z,68.22
2022-10-11T21:14:12.629Z,68.66
2022-10-11T21:17:50.727Z,69.20
2022-10-11T21:21:29.559Z,69.51
2022-10-11T21:25:08.363Z,69.43
2022-10-11T21:29:03.435Z,69.46
2022-10-11T21:32:24.415Z,69.31
2022-10-11T21:36:07.134Z,69.19
2022-10-11T21:39:58.620Z,69.20
2022-10-11T21:43:19.557Z,69.15
2022-10-11T21:47:12.787Z,69.13
2022-10-11T21:50:34.944Z,69.13
2022-10-11T21:54:12.812Z,69.21
2022-10-11T21:57:50.343Z,69.64
2022-10-11T22:01:28.096Z,70.06
2022-10-11T22:05:05.805Z,70.62
2022-10-11T22:08:43.344Z,70.54
2022-10-11T22:12:20.933Z,70.49
2022-10-11T22:16:03.559Z,70.60
2022-10-11T22:19:36.583Z,70.55
2022-10-11T22:23:14.046Z,70.00
2022-10-11T22:27:10.561Z,70.04
2022-10-11T22:30:50.011Z,70.23
2022-10-11T22:34:10.471Z,70.42
2022-10-11T22:38:06.995Z,71.21
2022-10-11T22:41:46.224Z,72.05
2022-10-11T22:45:25.722Z,72.32
2022-10-11T22:49:05.452Z,72.28
2022-10-11T22:52:26.407Z,72.12
2022-10-11T22:56:04.254Z,72.11
2022-10-11T22:59:42.121Z,71.87
2022-10-11T23:03:19.857Z,71.49
2022-10-11T23:07:00.166Z,71.35
2022-10-11T23:10:34.681Z,71.56
2022-10-11T23:14:12.593Z,72.27
2022-10-11T23:17:50.057Z,72.68
2022-10-11T23:21:27.780Z,73.05
2022-10-11T23:25:05.975Z,72.95
2022-10-11T23:28:44.290Z,72.68
2022-10-11T23:32:21.395Z,72.38
2022-10-11T23:35:58.506Z,72.34
2022-10-11T23:39:54.941Z,72.62
2022-10-11T23:43:34.410Z,73.04
2022-10-11T23:46:55.181Z,73.37
2022-10-11T23:50:32.863Z,73.75
2022-10-11T23:54:10.718Z,73.71
2022-10-11T23:57:48.333Z,73.61
